createdAt,value
2023-04-30T00:02:17.798Z,5.30
2023-04-30T00:04:47.762Z,5.03
2023-04-30T00:07:17.500Z,5.63
2023-04-30T00:09:47.246Z,5.27
2023-04-30T00:12:19.784Z,4.40
2023-04-30T00:14:49.586Z,5.03
2023-04-30T00:17:19.312Z,5.80
2023-04-30T00:19:49.007Z,8.60
2023-04-30T00:22:18.745Z,7.80
2023-04-30T00:24:48.766Z,8.10
2023-04-30T00:27:21.443Z,6.23
2023-04-30T00:29:51.197Z,7.97
2023-04-30T00:32:21.514Z,5.57
2023-04-30T00:34:51.553Z,6.97
2023-04-30T00:37:21.337Z,24.23
2023-04-30T00:39:51.156Z,6.47
2023-04-30T00:42:23.487Z,5.20
2023-04-30T00:44:53.209Z,5.70
2023-04-30T00:47:23.013Z,6.10
2023-04-30T00:49:52.988Z,6.63
2023-04-30T00:52:22.923Z,6.53
2023-04-30T00:54:54.503Z,5.43
2023-04-30T00:57:27.946Z,5.90
2023-04-30T00:59:58.270Z,4.80
2023-04-30T01:02:28.440Z,5.37
2023-04-30T01:04:58.855Z,4.87
2023-04-30T01:07:29.524Z,4.80
2023-04-30T01:09:59.506Z,4.50
2023-04-30T01:12:40.440Z,5.57
2023-04-30T01:15:25.667Z,6.50
2023-04-30T01:17:59.989Z,8.87
2023-04-30T01:20:32.561Z,10.40
2023-04-30T01:23:16.785Z,11.90
2023-04-30T01:26:10.913Z,13.63
2023-04-30T01:28:47.549Z,10.73
2023-04-30T01:31:17.525Z,12.20
2023-04-30T01:33:47.330Z,27.10
2023-04-30T01:36:27.346Z,24.20
2023-04-30T01:39:08.699Z,8.80
2023-04-30T01:41:45.260Z,5.50
2023-04-30T01:44:40.959Z,4.73
2023-04-30T01:47:20.999Z,4.53
2023-04-30T01:50:00.720Z,4.40
2023-04-30T01:52:36.131Z,5.33
2023-04-30T01:55:11.305Z,4.40
2023-04-30T01:57:44.394Z,4.07
2023-04-30T02:00:18.093Z,4.00
2023-04-30T02:02:47.920Z,3.80
2023-04-30T02:05:18.847Z,2.73
2023-04-30T02:07:51.647Z,3.40
2023-04-30T02:10:22.586Z,3.37
2023-04-30T02:12:52.479Z,3.50
2023-04-30T02:15:24.984Z,3.57
2023-04-30T02:17:54.792Z,3.77
2023-04-30T02:20:24.597Z,3.00
2023-04-30T02:22:54.420Z,3.50
2023-04-30T02:25:24.195Z,3.20
2023-04-30T02:27:53.941Z,3.53
2023-04-30T02:30:26.237Z,2.80
2023-04-30T02:32:56.009Z,2.93
2023-04-30T02:35:25.765Z,3.37
2023-04-30T02:37:55.589Z,3.47
2023-04-30T02:40:25.333Z,3.37
2023-04-30T02:42:56.953Z,3.47
2023-04-30T02:45:29.312Z,3.70
2023-04-30T02:47:59.148Z,3.10
2023-04-30T02:50:28.944Z,2.93
2023-04-30T02:52:58.912Z,2.50
2023-04-30T02:55:28.671Z,2.60
2023-04-30T02:57:58.771Z,3.27
2023-04-30T03:00:31.118Z,2.77
2023-04-30T03:03:01.169Z,2.70
2023-04-30T03:05:31.698Z,2.80
2023-04-30T03:08:01.425Z,2.33
2023-04-30T03:10:31.196Z,2.47
2023-04-30T03:13:01.331Z,2.57
2023-04-30T03:15:35.660Z,2.40
2023-04-30T03:18:05.479Z,2.70
2023-04-30T03:20:35.237Z,2.60
2023-04-30T03:23:05.095Z,2.83
2023-04-30T03:25:34.872Z,3.67
2023-04-30T03:28:04.589Z,4.00
2023-04-30T03:30:37.008Z,3.50
2023-04-30T03:33:07.379Z,5.10
2023-04-30T03:35:37.536Z,4.70
2023-04-30T03:38:07.262Z,4.53
2023-04-30T03:40:36.966Z,4.80
2023-04-30T03:43:06.809Z,4.40
2023-04-30T03:45:39.230Z,3.60
2023-04-30T03:48:09.249Z,3.30
2023-04-30T03:50:39.064Z,3.00
2023-04-30T03:53:11.590Z,2.57
2023-04-30T03:55:41.736Z,2.07
2023-04-30T03:58:11.592Z,1.97
2023-04-30T04:00:45.877Z,1.90
2023-04-30T04:03:15.997Z,1.90
2023-04-30T04:05:46.287Z,1.60
2023-04-30T04:08:16.179Z,1.77
2023-04-30T04:10:46.673Z,2.00
2023-04-30T04:13:16.409Z,1.80
2023-04-30T04:15:48.789Z,1.90
2023-04-30T04:18:18.668Z,2.10
2023-04-30T04:20:48.447Z,1.80
2023-04-30T04:23:19.478Z,2.37
2023-04-30T04:25:49.783Z,2.07
2023-04-30T04:28:19.577Z,2.53
2023-04-30T04:30:52.634Z,2.10
2023-04-30T04:33:22.443Z,2.80
2023-04-30T04:35:52.208Z,2.60
2023-04-30T04:38:23.029Z,3.07
2023-04-30T04:40:56.161Z,2.87
2023-04-30T04:43:26.420Z,3.20
2023-04-30T04:45:59.148Z,2.70
2023-04-30T04:48:28.856Z,2.73
2023-04-30T04:50:59.224Z,2.40
2023-04-30T04:53:28.990Z,2.80
2023-04-30T04:55:58.712Z,3.00
2023-04-30T04:58:28.439Z,2.80
2023-04-30T05:01:01.596Z,3.60
2023-04-30T05:03:33.944Z,3.47
2023-04-30T05:06:03.850Z,3.50
2023-04-30T05:08:34.473Z,3.50
2023-04-30T05:11:04.199Z,3.57
2023-04-30T05:13:33.981Z,3.00
2023-04-30T05:16:06.803Z,4.23
2023-04-30T05:18:36.544Z,3.70
2023-04-30T05:21:06.925Z,4.10
2023-04-30T05:23:36.650Z,4.17
2023-04-30T05:26:06.575Z,4.10
2023-04-30T05:28:36.396Z,4.30
2023-04-30T05:31:08.913Z,4.40
2023-04-30T05:33:40.993Z,4.17
2023-04-30T05:36:11.022Z,4.30
2023-04-30T05:38:40.854Z,4.67
2023-04-30T05:41:10.685Z,4.37
2023-04-30T05:43:40.451Z,4.90
2023-04-30T05:46:12.849Z,5.53
2023-04-30T05:48:42.685Z,5.30
2023-04-30T05:51:12.680Z,4.60
2023-04-30T05:53:42.431Z,4.40
2023-04-30T05:56:12.703Z,4.93
2023-04-30T05:58:42.483Z,4.70
2023-04-30T06:01:14.768Z,4.90
2023-04-30T06:03:44.558Z,5.90
2023-04-30T06:06:14.378Z,6.53
2023-04-30T06:08:45.740Z,6.40
2023-04-30T06:11:16.436Z,6.63
2023-04-30T06:13:46.246Z,6.40
2023-04-30T06:16:18.656Z,6.20
2023-04-30T06:18:48.523Z,6.40
2023-04-30T06:21:18.508Z,6.77
2023-04-30T06:23:48.238Z,5.83
2023-04-30T06:26:18.041Z,5.07
2023-04-30T06:28:47.765Z,4.60
2023-04-30T06:31:20.145Z,5.50
2023-04-30T06:33:50.373Z,4.93
2023-04-30T06:36:20.503Z,4.43
2023-04-30T06:38:50.234Z,4.30
2023-04-30T06:41:20.065Z,4.23
2023-04-30T06:43:49.803Z,5.00
2023-04-30T06:46:22.204Z,3.47
2023-04-30T06:48:51.987Z,4.30
2023-04-30T06:51:21.739Z,4.57
2023-04-30T06:53:51.465Z,3.97
2023-04-30T06:56:22.177Z,4.30
2023-04-30T06:58:52.682Z,4.10
2023-04-30T07:01:25.036Z,4.27
2023-04-30T07:03:55.640Z,4.33
2023-04-30T07:06:25.669Z,4.10
2023-04-30T07:08:55.466Z,4.70
2023-04-30T07:11:25.188Z,4.50
2023-04-30T07:13:55.040Z,3.90
2023-04-30T07:16:28.692Z,4.60
2023-04-30T07:18:59.430Z,3.50
2023-04-30T07:21:29.370Z,4.27
2023-04-30T07:23:59.203Z,3.40
2023-04-30T07:26:28.941Z,4.17
2023-04-30T07:28:58.646Z,3.30
2023-04-30T07:31:30.976Z,3.70
2023-04-30T07:34:00.734Z,5.23
2023-04-30T07:36:31.148Z,4.63
2023-04-30T07:39:01.135Z,3.97
2023-04-30T07:41:30.861Z,4.80
2023-04-30T07:44:00.611Z,3.10
2023-04-30T07:46:32.962Z,3.70
2023-04-30T07:49:02.760Z,4.00
2023-04-30T07:51:33.051Z,3.53
2023-04-30T07:54:04.122Z,4.20
2023-04-30T07:56:34.136Z,4.90
2023-04-30T07:59:03.867Z,3.83
2023-04-30T08:01:36.249Z,3.53
2023-04-30T08:04:07.479Z,3.40
2023-04-30T08:06:37.224Z,3.53
2023-04-30T08:09:07.393Z,3.70
2023-04-30T08:11:37.181Z,4.13
2023-04-30T08:14:07.184Z,3.87
2023-04-30T08:16:39.611Z,3.97
2023-04-30T08:19:09.537Z,3.87
2023-04-30T08:21:39.443Z,4.10
2023-04-30T08:24:09.261Z,4.40
2023-04-30T08:26:38.989Z,4.50
2023-04-30T08:29:08.729Z,3.33
2023-04-30T08:31:41.197Z,3.70
2023-04-30T08:34:10.984Z,3.80
2023-04-30T08:36:40.710Z,4.00
2023-04-30T08:39:10.422Z,4.17
2023-04-30T08:41:43.510Z,3.70
2023-04-30T08:44:14.049Z,3.60
2023-04-30T08:46:48.268Z,3.40
2023-04-30T08:49:18.019Z,6.00
2023-04-30T08:51:49.358Z,4.10
2023-04-30T08:54:21.184Z,3.40
2023-04-30T08:56:51.086Z,3.03
2023-04-30T08:59:21.157Z,5.37
2023-04-30T09:01:54.083Z,3.60
2023-04-30T09:04:23.909Z,3.83
2023-04-30T09:06:59.144Z,3.40
2023-04-30T09:09:32.019Z,3.70
2023-04-30T09:12:19.309Z,3.30
2023-04-30T09:15:03.991Z,3.93
2023-04-30T09:17:38.593Z,3.30
2023-04-30T09:20:13.570Z,3.90
2023-04-30T09:22:45.584Z,3.40
2023-04-30T09:25:16.692Z,2.60
2023-04-30T09:27:48.563Z,2.80
2023-04-30T09:30:34.942Z,3.33
2023-04-30T09:33:11.491Z,3.77
2023-04-30T09:35:43.566Z,3.67
2023-04-30T09:38:29.701Z,3.77
2023-04-30T09:41:02.050Z,4.53
2023-04-30T09:43:32.113Z,3.40
2023-04-30T09:46:02.916Z,4.10
2023-04-30T09:48:36.112Z,3.40
2023-04-30T09:51:07.017Z,3.57
2023-04-30T09:53:41.005Z,3.27
2023-04-30T09:56:13.283Z,3.40
2023-04-30T09:58:52.002Z,3.70
2023-04-30T10:01:22.894Z,3.63
2023-04-30T10:03:56.815Z,3.10
2023-04-30T10:06:28.830Z,3.50
2023-04-30T10:09:02.497Z,3.77
2023-04-30T10:11:35.943Z,3.53
2023-04-30T10:14:14.271Z,3.57
2023-04-30T10:16:50.945Z,4.47
2023-04-30T10:19:29.224Z,3.17
2023-04-30T10:21:59.787Z,3.97
2023-04-30T10:24:30.095Z,2.40
2023-04-30T10:27:00.436Z,3.50
2023-04-30T10:29:30.974Z,3.50
2023-04-30T10:32:02.223Z,3.57
2023-04-30T10:34:46.407Z,3.03
2023-04-30T10:37:24.246Z,2.80
2023-04-30T10:39:56.214Z,3.40
2023-04-30T10:42:26.985Z,3.47
2023-04-30T10:44:57.733Z,4.07
2023-04-30T10:47:32.926Z,3.57
2023-04-30T10:50:12.275Z,2.80
2023-04-30T10:52:44.043Z,3.73
2023-04-30T10:55:14.846Z,3.57
2023-04-30T10:57:48.685Z,3.57
2023-04-30T11:00:23.399Z,3.10
2023-04-30T11:03:01.268Z,4.10
2023-04-30T11:05:41.914Z,3.87
2023-04-30T11:08:15.123Z,3.80
2023-04-30T11:11:01.245Z,3.13
2023-04-30T11:13:31.559Z,3.03
2023-04-30T11:16:06.859Z,2.80
2023-04-30T11:18:36.758Z,3.50
2023-04-30T11:21:11.617Z,3.50
2023-04-30T11:23:45.146Z,3.23
2023-04-30T11:26:15.522Z,2.73
2023-04-30T11:28:54.723Z,2.67
2023-04-30T11:31:25.963Z,2.67
2023-04-30T11:33:59.223Z,2.57
2023-04-30T11:36:34.851Z,2.90
2023-04-30T11:39:09.593Z,2.50
2023-04-30T11:41:44.730Z,2.67
2023-04-30T11:44:26.248Z,2.40
2023-04-30T11:46:57.334Z,2.70
2023-04-30T11:49:27.878Z,2.20
2023-04-30T11:52:01.099Z,2.83
2023-04-30T11:54:35.526Z,2.73
2023-04-30T11:57:06.932Z,2.37
2023-04-30T11:59:44.564Z,2.77
2023-04-30T12:02:18.801Z,2.77
2023-04-30T12:04:49.536Z,3.13
2023-04-30T12:07:23.757Z,2.13
2023-04-30T12:09:57.807Z,3.20
2023-04-30T12:12:33.088Z,2.40
2023-04-30T12:15:14.421Z,3.87
2023-04-30T12:17:45.371Z,3.13
2023-04-30T12:20:18.801Z,2.60
2023-04-30T12:22:51.763Z,2.13
2023-04-30T12:25:23.359Z,2.57
2023-04-30T12:27:54.655Z,2.00
2023-04-30T12:30:27.102Z,2.83
2023-04-30T12:33:00.541Z,2.27
2023-04-30T12:35:32.689Z,3.50
2023-04-30T12:38:09.777Z,3.07
2023-04-30T12:40:40.952Z,2.50
2023-04-30T12:43:11.901Z,2.40
2023-04-30T12:45:51.436Z,2.97
2023-04-30T12:48:22.845Z,2.57
2023-04-30T12:50:57.060Z,2.20
2023-04-30T12:53:29.960Z,2.60
2023-04-30T12:56:16.937Z,2.17
2023-04-30T12:58:48.631Z,2.37
2023-04-30T13:01:21.103Z,2.03
2023-04-30T13:03:51.133Z,2.03
2023-04-30T13:06:21.118Z,2.30
2023-04-30T13:11:27.153Z,2.63
2023-04-30T13:13:57.914Z,2.60
2023-04-30T13:16:28.541Z,2.43
2023-04-30T13:18:58.323Z,2.37
2023-04-30T13:21:28.118Z,2.50
2023-04-30T13:24:00.423Z,1.87
2023-04-30T13:26:30.822Z,2.57
2023-04-30T13:29:00.751Z,2.27
2023-04-30T13:31:30.678Z,2.00
2023-04-30T13:34:00.659Z,2.57
2023-04-30T13:36:30.396Z,2.37
2023-04-30T13:39:03.004Z,2.53
2023-04-30T13:41:32.805Z,2.63
2023-04-30T13:44:03.222Z,2.30
2023-04-30T13:46:33.125Z,2.57
2023-04-30T13:49:03.108Z,2.20
2023-04-30T13:51:32.825Z,2.83
2023-04-30T13:54:05.193Z,2.10
2023-04-30T13:56:35.085Z,2.30
2023-04-30T13:59:05.000Z,1.83
2023-04-30T14:01:34.784Z,2.30
2023-04-30T14:04:04.945Z,2.40
2023-04-30T14:06:34.893Z,2.27
2023-04-30T14:09:07.397Z,1.90
2023-04-30T14:11:37.191Z,2.10
2023-04-30T14:14:07.396Z,2.67
2023-04-30T14:16:37.360Z,2.40
2023-04-30T14:19:07.130Z,2.20
2023-04-30T14:21:37.002Z,2.03
2023-04-30T14:24:10.090Z,2.37
2023-04-30T14:26:40.840Z,1.73
2023-04-30T14:29:10.598Z,2.40
2023-04-30T14:31:40.438Z,2.67
2023-04-30T14:34:10.223Z,2.33
2023-04-30T14:36:40.376Z,1.70
2023-04-30T14:39:13.093Z,2.07
2023-04-30T14:41:42.939Z,2.00
2023-04-30T14:44:12.695Z,2.20
2023-04-30T14:46:42.481Z,2.83
2023-04-30T14:49:12.198Z,3.00
2023-04-30T14:51:42.097Z,2.30
2023-04-30T14:54:14.464Z,2.20
2023-04-30T14:56:44.574Z,2.17
2023-04-30T14:59:14.798Z,1.90
2023-04-30T15:01:44.890Z,1.77
2023-04-30T15:04:14.667Z,2.50
2023-04-30T15:06:44.517Z,2.10
2023-04-30T15:09:17.026Z,2.03
2023-04-30T15:11:46.735Z,3.30
2023-04-30T15:14:17.212Z,3.77
2023-04-30T15:16:47.293Z,2.80
2023-04-30T15:19:17.199Z,2.60
2023-04-30T15:21:48.975Z,2.20
2023-04-30T15:24:21.788Z,2.50
2023-04-30T15:26:52.728Z,2.50
2023-04-30T15:29:22.569Z,2.73
2023-04-30T15:31:54.077Z,2.10
2023-04-30T15:34:25.127Z,2.13
2023-04-30T15:36:54.938Z,2.30
2023-04-30T15:39:27.243Z,1.83
2023-04-30T15:41:57.073Z,2.37
2023-04-30T15:44:26.925Z,1.80
2023-04-30T15:46:56.936Z,2.37
2023-04-30T15:49:26.806Z,2.50
2023-04-30T15:51:56.497Z,2.90
2023-04-30T15:54:28.880Z,2.37
2023-04-30T15:56:59.785Z,2.63
2023-04-30T15:59:29.883Z,2.07
2023-04-30T16:01:59.661Z,2.60
2023-04-30T16:04:29.574Z,2.27
2023-04-30T16:06:59.478Z,2.40
2023-04-30T16:09:31.915Z,2.10
2023-04-30T16:12:02.294Z,3.20
2023-04-30T16:14:32.043Z,2.27
2023-04-30T16:17:01.962Z,3.20
2023-04-30T16:19:31.891Z,1.63
2023-04-30T16:22:01.925Z,2.10
2023-04-30T16:24:34.244Z,2.23
2023-04-30T16:27:04.075Z,1.97
2023-04-30T16:29:34.059Z,2.03
2023-04-30T16:32:03.821Z,2.13
2023-04-30T16:34:33.666Z,1.50
2023-04-30T16:37:03.806Z,3.73
2023-04-30T16:39:36.133Z,1.90
2023-04-30T16:42:06.054Z,1.77
2023-04-30T16:44:35.850Z,2.17
2023-04-30T16:47:05.574Z,2.67
2023-04-30T16:49:35.322Z,2.50
2023-04-30T16:52:05.166Z,2.30
2023-04-30T16:54:37.484Z,2.73
2023-04-30T16:57:07.408Z,2.83
2023-04-30T16:59:37.731Z,3.10
2023-04-30T17:02:08.302Z,2.37
2023-04-30T17:04:38.133Z,2.30
2023-04-30T17:07:07.941Z,2.00
2023-04-30T17:09:40.278Z,2.33
2023-04-30T17:12:10.009Z,2.63
2023-04-30T17:14:40.205Z,2.30
2023-04-30T17:17:09.936Z,2.20
2023-04-30T17:19:39.672Z,2.47
2023-04-30T17:22:09.372Z,2.77
2023-04-30T17:24:42.039Z,2.33
2023-04-30T17:27:11.987Z,2.53
2023-04-30T17:29:41.914Z,3.10
2023-04-30T17:32:11.840Z,2.60
2023-04-30T17:34:42.550Z,2.70
2023-04-30T17:37:12.412Z,2.30
2023-04-30T17:39:44.721Z,2.13
2023-04-30T17:42:15.020Z,2.10
2023-04-30T17:44:44.852Z,4.33
2023-04-30T17:47:16.200Z,2.43
2023-04-30T17:49:46.117Z,1.87
2023-04-30T17:52:15.900Z,2.57
2023-04-30T17:54:48.235Z,3.30
2023-04-30T17:57:17.985Z,2.80
2023-04-30T17:59:47.720Z,4.30
2023-04-30T18:02:17.521Z,2.77
2023-04-30T18:04:47.407Z,3.40
2023-04-30T18:07:17.150Z,2.57
2023-04-30T18:09:49.571Z,3.00
2023-04-30T18:12:20.138Z,2.70
2023-04-30T18:14:49.985Z,2.70
2023-04-30T18:17:19.764Z,2.50
2023-04-30T18:19:49.959Z,2.80
2023-04-30T18:22:19.847Z,3.63
2023-04-30T18:24:52.189Z,3.63
2023-04-30T18:27:21.938Z,3.77
2023-04-30T18:29:52.444Z,3.73
2023-04-30T18:32:22.377Z,3.60
2023-04-30T18:34:52.109Z,3.70
2023-04-30T18:37:21.875Z,3.50
2023-04-30T18:39:54.706Z,3.23
2023-04-30T18:42:25.247Z,2.60
2023-04-30T18:44:55.488Z,5.00
2023-04-30T18:47:25.281Z,3.23
2023-04-30T18:49:55.377Z,3.87
2023-04-30T18:52:25.412Z,2.70
2023-04-30T18:54:57.955Z,2.57
2023-04-30T18:57:28.528Z,3.43
2023-04-30T18:59:58.830Z,3.60
2023-04-30T19:02:28.854Z,3.27
2023-04-30T19:04:58.676Z,3.57
2023-04-30T19:07:28.577Z,3.17
2023-04-30T19:10:02.297Z,3.73
2023-04-30T19:12:32.145Z,3.07
2023-04-30T19:15:01.887Z,3.27
2023-04-30T19:17:31.747Z,3.07
2023-04-30T19:20:01.631Z,3.47
2023-04-30T19:22:31.720Z,3.30
2023-04-30T19:25:04.033Z,3.00
2023-04-30T19:27:33.790Z,3.10
2023-04-30T19:30:03.669Z,4.27
2023-04-30T19:32:33.475Z,4.20
2023-04-30T19:35:03.325Z,4.50
2023-04-30T19:37:33.322Z,4.10
2023-04-30T19:40:07.009Z,4.53
2023-04-30T19:42:36.734Z,4.63
2023-04-30T19:45:06.850Z,7.10
2023-04-30T19:47:36.709Z,9.07
2023-04-30T19:50:06.890Z,8.03
2023-04-30T19:52:36.663Z,6.10
2023-04-30T19:55:09.598Z,5.87
2023-04-30T19:57:39.326Z,5.10
2023-04-30T20:00:13.067Z,3.57
2023-04-30T20:02:43.745Z,3.30
2023-04-30T20:05:13.589Z,3.50
2023-04-30T20:07:43.325Z,5.00
2023-04-30T20:10:15.836Z,4.50
2023-04-30T20:12:45.593Z,3.40
2023-04-30T20:15:15.328Z,4.50
2023-04-30T20:17:45.814Z,4.07
2023-04-30T20:20:16.422Z,3.90
2023-04-30T20:22:46.792Z,4.00
2023-04-30T20:25:19.130Z,4.80
2023-04-30T20:27:48.970Z,4.20
2023-04-30T20:30:18.759Z,5.00
2023-04-30T20:32:48.692Z,4.17
2023-04-30T20:35:18.576Z,4.37
2023-04-30T20:37:49.821Z,4.73
2023-04-30T20:40:22.550Z,4.70
2023-04-30T20:42:52.460Z,4.50
2023-04-30T20:45:23.305Z,4.50
2023-04-30T20:47:53.408Z,3.90
2023-04-30T20:50:23.302Z,4.63
2023-04-30T20:52:53.027Z,4.37
2023-04-30T20:55:25.472Z,4.10
2023-04-30T20:57:55.292Z,5.43
2023-04-30T21:00:25.293Z,5.07
2023-04-30T21:02:55.271Z,4.33
2023-04-30T21:05:25.185Z,4.77
2023-04-30T21:07:55.134Z,4.53
2023-04-30T21:10:27.480Z,4.37
2023-04-30T21:12:58.011Z,4.27
2023-04-30T21:15:29.020Z,4.40
2023-04-30T21:17:58.817Z,5.30
2023-04-30T21:20:28.625Z,4.33
2023-04-30T21:22:58.416Z,4.80
2023-04-30T21:25:31.168Z,4.90
2023-04-30T21:28:01.457Z,4.50
2023-04-30T21:30:31.479Z,4.60
2023-04-30T21:33:01.313Z,4.50
2023-04-30T21:35:33.245Z,4.97
2023-04-30T21:38:03.084Z,5.03
2023-04-30T21:40:36.855Z,4.50
2023-04-30T21:43:07.021Z,5.83
2023-04-30T21:45:36.768Z,5.60
2023-04-30T21:48:07.036Z,5.77
2023-04-30T21:50:38.586Z,5.93
2023-04-30T21:53:08.425Z,8.23
2023-04-30T21:55:40.859Z,6.50
2023-04-30T21:58:10.596Z,6.27
2023-04-30T22:00:40.901Z,7.30
2023-04-30T22:03:10.823Z,6.53
2023-04-30T22:05:43.289Z,6.60
2023-04-30T22:08:13.050Z,6.50
2023-04-30T22:10:45.440Z,6.13
2023-04-30T22:13:15.489Z,6.83
2023-04-30T22:15:48.370Z,6.07
2023-04-30T22:18:18.585Z,5.70
2023-04-30T22:20:48.352Z,6.47
2023-04-30T22:23:18.510Z,6.83
2023-04-30T22:25:50.953Z,6.27
2023-04-30T22:28:21.234Z,6.90
2023-04-30T22:30:51.072Z,6.13
2023-04-30T22:33:22.066Z,6.40
2023-04-30T22:35:52.620Z,6.43
2023-04-30T22:38:22.489Z,5.20
2023-04-30T22:40:54.970Z,6.17
2023-04-30T22:43:24.814Z,6.77
2023-04-30T22:45:54.768Z,5.17
2023-04-30T22:48:24.902Z,6.13
2023-04-30T22:50:55.667Z,5.93
2023-04-30T22:53:25.528Z,5.57
2023-04-30T22:55:58.002Z,5.50
2023-04-30T22:58:27.778Z,6.40
2023-04-30T23:00:57.754Z,5.77
2023-04-30T23:03:27.502Z,5.40
2023-04-30T23:05:57.320Z,5.83
2023-04-30T23:08:27.222Z,5.90
2023-04-30T23:11:00.560Z,5.90
2023-04-30T23:13:30.356Z,6.03
2023-04-30T23:16:01.473Z,6.70
2023-04-30T23:18:31.707Z,7.40
2023-04-30T23:21:01.733Z,6.80
2023-04-30T23:23:31.457Z,6.10
2023-04-30T23:26:04.265Z,6.60
2023-04-30T23:28:34.056Z,5.90
2023-04-30T23:31:03.798Z,5.93
2023-04-30T23:33:33.552Z,6.40
2023-04-30T23:36:03.304Z,5.80
2023-04-30T23:38:33.013Z,6.60
2023-04-30T23:41:05.713Z,6.60
2023-04-30T23:43:35.556Z,6.50
2023-04-30T23:46:05.349Z,6.30
2023-04-30T23:48:36.151Z,6.40
2023-04-30T23:51:08.995Z,6.20
2023-04-30T23:53:38.922Z,6.57
2023-04-30T23:56:11.630Z,5.90
2023-04-30T23:58:41.463Z,5.77
